createdAt,value
2023-01-10T00:00:55.742Z,95010.6
2023-01-10T00:01:58.057Z,95016.9
2023-01-10T00:03:00.888Z,95013.1
2023-01-10T00:04:03.506Z,95014.9
2023-01-10T00:05:06.034Z,95012.7
2023-01-10T00:06:08.577Z,95013
2023-01-10T00:07:11.108Z,95013.5
2023-01-10T00:08:13.329Z,95015.6
2023-01-10T00:09:15.900Z,95015
2023-01-10T00:10:18.481Z,95020
2023-01-10T00:11:20.765Z,95016
2023-01-10T00:12:23.264Z,95017.1
2023-01-10T00:13:25.957Z,95016.7
2023-01-10T00:14:28.490Z,95014.3
2023-01-10T00:15:31.179Z,95021.7
2023-01-10T00:16:33.698Z,95012.9
2023-01-10T00:17:36.290Z,95015.1
2023-01-10T00:18:38.802Z,95016.9
2023-01-10T00:19:41.037Z,95018.8
2023-01-10T00:20:43.551Z,95021
2023-01-10T00:21:46.060Z,95023.4
2023-01-10T00:22:48.287Z,95022.6
2023-01-10T00:23:50.808Z,95028.8
2023-01-10T00:24:53.382Z,95031
2023-01-10T00:25:55.630Z,95031.8
2023-01-10T00:26:58.252Z,95028.6
2023-01-10T00:28:00.751Z,95035.4
2023-01-10T00:29:03.293Z,95039.4
2023-01-10T00:30:05.846Z,95037
2023-01-10T00:31:08.610Z,95032.8
2023-01-10T00:32:11.388Z,95031.2
2023-01-10T00:33:13.989Z,95033.8
2023-01-10T00:34:16.560Z,95031.6
2023-01-10T00:35:19.083Z,95036.2
2023-01-10T00:36:21.573Z,95045.1
2023-01-10T00:37:23.538Z,95049.3
2023-01-10T00:38:26.051Z,95056.9
2023-01-10T00:39:28.646Z,95065.7
2023-01-10T00:40:30.880Z,95052.1
2023-01-10T00:41:33.154Z,95063.4
2023-01-10T00:42:35.665Z,95058.4
2023-01-10T00:43:38.185Z,95059.8
2023-01-10T00:44:40.450Z,95061.4
2023-01-10T00:45:42.400Z,95063.5
2023-01-10T00:46:44.606Z,95067.9
2023-01-10T00:47:47.103Z,95071.2
2023-01-10T00:48:49.401Z,95080.2
2023-01-10T00:49:51.936Z,95076.4
2023-01-10T00:50:54.436Z,95081.5
2023-01-10T00:51:56.695Z,95081.3
2023-01-10T00:52:59.215Z,95086
2023-01-10T00:54:01.489Z,95089.5
2023-01-10T00:55:03.819Z,95093.2
2023-01-10T00:56:06.069Z,95090.8
2023-01-10T00:57:08.578Z,95092.9
2023-01-10T00:58:11.088Z,95099.5
2023-01-10T00:59:13.717Z,95095.3
2023-01-10T01:00:16.235Z,95097
2023-01-10T01:01:19.352Z,95098.6
2023-01-10T01:02:22.650Z,95099.8
2023-01-10T01:03:25.110Z,95104
2023-01-10T01:04:27.710Z,95106
2023-01-10T01:05:30.250Z,95112.1
2023-01-10T01:06:32.498Z,95110
2023-01-10T01:07:35.026Z,95105.7
2023-01-10T01:08:37.301Z,95113.1
2023-01-10T01:09:39.813Z,95107
2023-01-10T01:10:42.061Z,95110.7
2023-01-10T01:11:44.574Z,95111.6
2023-01-10T01:12:47.106Z,95112.9
2023-01-10T01:13:49.366Z,95115.2
2023-01-10T01:14:51.869Z,95120.3
2023-01-10T01:15:54.621Z,95118.7
2023-01-10T01:16:57.230Z,95123.3
2023-01-10T01:17:59.489Z,95128.9
2023-01-10T01:19:02.015Z,95127.9
2023-01-10T01:20:04.706Z,95127.3
2023-01-10T01:21:07.275Z,95136.5
2023-01-10T01:22:09.199Z,95139.6
2023-01-10T01:23:11.753Z,95138.4
2023-01-10T01:24:14.275Z,95141.6
2023-01-10T01:25:16.784Z,95148.1
2023-01-10T01:26:18.995Z,95146.1
2023-01-10T01:27:21.230Z,95147.1
2023-01-10T01:28:23.442Z,95152.6
2023-01-10T01:30:30.673Z,95151.8
2023-01-10T01:31:33.623Z,95154.5
2023-01-10T01:32:36.560Z,95154.1
2023-01-10T01:33:39.142Z,95156.4
2023-01-10T01:34:41.382Z,95162.6
2023-01-10T01:35:44.099Z,95163.5
2023-01-10T01:36:46.764Z,95167
2023-01-10T01:37:48.712Z,95167.6
2023-01-10T01:38:50.955Z,95170.8
2023-01-10T01:39:53.447Z,95171.7
2023-01-10T01:40:55.698Z,95170.1
2023-01-10T01:41:57.969Z,95166.5
2023-01-10T01:43:00.491Z,95172.8
2023-01-10T01:44:03.129Z,95172.5
2023-01-10T01:45:05.357Z,95170.9
2023-01-10T01:46:08.026Z,95179
2023-01-10T01:47:10.701Z,95174.9
2023-01-10T01:48:12.915Z,95176
2023-01-10T01:49:15.149Z,95179.8
2023-01-10T01:50:17.668Z,95188.5
2023-01-10T01:51:20.278Z,95187.1
2023-01-10T01:52:22.797Z,95185.5
2023-01-10T01:53:25.036Z,95189.9
2023-01-10T01:54:27.279Z,95191.8
2023-01-10T01:55:29.249Z,95193.9
2023-01-10T01:56:31.496Z,95194.1
2023-01-10T01:57:33.990Z,95192.7
2023-01-10T01:58:36.501Z,95193.3
2023-01-10T01:59:39.017Z,95193.7
2023-01-10T02:00:41.515Z,95195.8
2023-01-10T02:01:44.270Z,95191.2
2023-01-10T02:03:52.344Z,95194.3
2023-01-10T02:04:54.967Z,95198.8
2023-01-10T02:05:57.467Z,95202.4
2023-01-10T02:07:00.104Z,95197.2
2023-01-10T02:08:02.762Z,95203.8
2023-01-10T02:09:05.014Z,95206.4
2023-01-10T02:10:07.537Z,95206.4
2023-01-10T02:11:09.760Z,95211.4
2023-01-10T02:12:12.316Z,95210.7
2023-01-10T02:13:14.538Z,95207.6
2023-01-10T02:14:17.046Z,95214
2023-01-10T02:15:19.553Z,95208.9
2023-01-10T02:16:22.223Z,95211.8
2023-01-10T02:17:24.772Z,95211.8
2023-01-10T02:18:27.038Z,95217
2023-01-10T02:19:29.559Z,95210.6
2023-01-10T02:20:32.061Z,95217.1
2023-01-10T02:21:34.561Z,95212
2023-01-10T02:22:36.862Z,95210.4
2023-01-10T02:23:39.119Z,95218.1
2023-01-10T02:24:41.394Z,95212.7
2023-01-10T02:25:44.021Z,95217.3
2023-01-10T02:26:46.255Z,95215.9
2023-01-10T02:27:48.750Z,95218.8
2023-01-10T02:28:51.248Z,95225.3
2023-01-10T02:29:53.765Z,95220.7
2023-01-10T02:30:56.492Z,95218.8
2023-01-10T02:31:59.126Z,95219.7
2023-01-10T02:34:06.316Z,95230.3
2023-01-10T02:35:08.853Z,95233.1
2023-01-10T02:36:11.132Z,95239
2023-01-10T02:37:13.095Z,95237.6
2023-01-10T02:38:15.699Z,95233.6
2023-01-10T02:39:18.228Z,95240
2023-01-10T02:40:20.736Z,95243.2
2023-01-10T02:41:22.976Z,95239.8
2023-01-10T02:42:25.209Z,95250.7
2023-01-10T02:43:27.724Z,95246.1
2023-01-10T02:44:29.981Z,95245.6
2023-01-10T02:45:32.212Z,95244.3
2023-01-10T02:46:34.749Z,95251
2023-01-10T02:47:37.037Z,95252.2
2023-01-10T02:48:39.552Z,95256.3
2023-01-10T02:49:41.747Z,95257.9
2023-01-10T02:50:44.353Z,95260.2
2023-01-10T02:51:46.595Z,95259.8
2023-01-10T02:52:49.116Z,95259.5
2023-01-10T02:53:51.701Z,95258.3
2023-01-10T02:54:54.256Z,95257.9
2023-01-10T02:55:56.758Z,95259
2023-01-10T02:56:58.999Z,95259.5
2023-01-10T02:58:01.507Z,95258.4
2023-01-10T02:59:03.446Z,95261.7
2023-01-10T03:00:05.962Z,95262.9
2023-01-10T03:01:08.745Z,95259.3
2023-01-10T03:02:11.659Z,95270.6
2023-01-10T03:03:14.247Z,95261.3
2023-01-10T03:04:16.477Z,95264.4
2023-01-10T03:05:18.734Z,95267.3
2023-01-10T03:06:21.254Z,95265.6
2023-01-10T03:07:23.508Z,95269.2
2023-01-10T03:08:26.104Z,95269.1
2023-01-10T03:09:28.677Z,95273.6
2023-01-10T03:10:31.203Z,95277.3
2023-01-10T03:11:33.715Z,95270.5
2023-01-10T03:12:36.212Z,95267
2023-01-10T03:13:38.765Z,95272.4
2023-01-10T03:14:41.265Z,95279.6
2023-01-10T03:15:43.668Z,95280
2023-01-10T03:16:45.989Z,95280.7
2023-01-10T03:17:48.477Z,95283
2023-01-10T03:18:50.952Z,95284.5
2023-01-10T03:19:53.227Z,95289.6
2023-01-10T03:20:55.485Z,95290.7
2023-01-10T03:21:58.051Z,95289.2
2023-01-10T03:23:00.553Z,95289.2
2023-01-10T03:24:02.787Z,95288.6
2023-01-10T03:25:05.536Z,95288.1
2023-01-10T03:26:08.082Z,95295.3
2023-01-10T03:27:10.582Z,95299
2023-01-10T03:28:13.102Z,95302.9
2023-01-10T03:29:15.592Z,95306
2023-01-10T03:30:17.821Z,95307.3
2023-01-10T03:31:20.261Z,95313.4
2023-01-10T03:32:22.842Z,95316.4
2023-01-10T03:33:25.394Z,95317.7
2023-01-10T03:34:27.927Z,95318.5
2023-01-10T03:35:30.137Z,95321.3
2023-01-10T03:36:32.668Z,95319.3
2023-01-10T03:37:34.926Z,95320.8
2023-01-10T03:38:37.171Z,95323.9
2023-01-10T03:39:39.669Z,95322.3
2023-01-10T03:40:42.339Z,95332
2023-01-10T03:41:44.916Z,95334.8
2023-01-10T03:42:47.429Z,95330.4
2023-01-10T03:43:49.663Z,95336.1
2023-01-10T03:44:52.181Z,95341.3
2023-01-10T03:45:54.419Z,95345.7
2023-01-10T03:46:57.244Z,95350.1
2023-01-10T03:47:59.642Z,95347.6
2023-01-10T03:49:02.151Z,95352.4
2023-01-10T03:50:04.112Z,95355.9
2023-01-10T03:51:06.635Z,95354.7
2023-01-10T03:52:09.163Z,95358.1
2023-01-10T03:53:11.670Z,95356.8
2023-01-10T03:54:14.168Z,95358.9
2023-01-10T03:55:16.668Z,95360
2023-01-10T03:56:18.943Z,95357.6
2023-01-10T03:57:21.500Z,95353.5
2023-01-10T03:58:24.014Z,95363
2023-01-10T03:59:26.242Z,95362.5
2023-01-10T04:00:28.499Z,95376.2
2023-01-10T04:01:31.549Z,95370.9
2023-01-10T04:02:34.281Z,95378.7
2023-01-10T04:03:36.520Z,95379.1
2023-01-10T04:04:39.055Z,95377.4
2023-01-10T04:05:41.550Z,95380.3
2023-01-10T04:06:43.797Z,95382.6
2023-01-10T04:07:46.076Z,95380.5
2023-01-10T04:08:48.300Z,95381
2023-01-10T04:09:50.813Z,95386.3
2023-01-10T04:10:53.315Z,95388.9
2023-01-10T04:11:55.639Z,95388.4
2023-01-10T04:12:58.201Z,95391.9
2023-01-10T04:14:00.430Z,95387.5
2023-01-10T04:15:03.011Z,95392.5
2023-01-10T04:16:05.680Z,95389.9
2023-01-10T04:17:08.007Z,95397.4
2023-01-10T04:18:09.980Z,95394.4
2023-01-10T04:19:12.515Z,95398.5
2023-01-10T04:20:15.041Z,95397.5
2023-01-10T04:21:17.258Z,95403
2023-01-10T04:22:19.509Z,95405.1
2023-01-10T04:23:22.014Z,95408
2023-01-10T04:24:24.533Z,95413.5
2023-01-10T04:25:27.060Z,95412.6
2023-01-10T04:26:29.589Z,95418.5
2023-01-10T04:27:31.906Z,95418.6
2023-01-10T04:28:34.477Z,95420.2
2023-01-10T04:29:36.806Z,95427.8
2023-01-10T04:30:39.308Z,95426.6
2023-01-10T04:31:42.318Z,95431
2023-01-10T04:32:44.901Z,95433.6
2023-01-10T04:33:47.401Z,95435.4
2023-01-10T04:34:49.651Z,95439.8
2023-01-10T04:35:51.931Z,95435.3
2023-01-10T04:36:54.498Z,95440.4
2023-01-10T04:37:56.711Z,95440
2023-01-10T04:38:58.935Z,95442.5
2023-01-10T04:40:01.460Z,95443
2023-01-10T04:41:03.709Z,95445.2
2023-01-10T04:42:06.253Z,95448.1
2023-01-10T04:43:08.835Z,95443
2023-01-10T04:44:11.397Z,95447.8
2023-01-10T04:45:13.376Z,95446.5
2023-01-10T04:46:15.887Z,95448.1
2023-01-10T04:47:18.394Z,95446.4
2023-01-10T04:48:20.930Z,95451.3
2023-01-10T04:49:23.221Z,95454.8
2023-01-10T04:50:25.728Z,95453.4
2023-01-10T04:51:28.243Z,95461.9
2023-01-10T04:52:30.500Z,95465.6
2023-01-10T04:53:33.024Z,95465.9
2023-01-10T04:54:35.535Z,95466
2023-01-10T04:55:37.492Z,95467.7
2023-01-10T04:56:40.016Z,95467.6
2023-01-10T04:57:42.278Z,95470.6
2023-01-10T04:58:44.874Z,95471.9
2023-01-10T04:59:47.127Z,95474.8
2023-01-10T05:00:49.626Z,95478.2
2023-01-10T05:01:52.858Z,95478.6
2023-01-10T05:02:56.154Z,95481.9
2023-01-10T05:03:59.066Z,95478
2023-01-10T05:05:01.612Z,95484
2023-01-10T05:06:04.137Z,95482.3
2023-01-10T05:07:06.368Z,95487.6
2023-01-10T05:08:08.892Z,95486.6
2023-01-10T05:09:11.109Z,95488.5
2023-01-10T05:10:13.347Z,95489.1
2023-01-10T05:11:15.899Z,95489.9
2023-01-10T05:12:18.443Z,95492.7
2023-01-10T05:13:20.679Z,95489.8
2023-01-10T05:14:23.262Z,95495.4
2023-01-10T05:15:25.830Z,95498.4
2023-01-10T05:16:28.522Z,95509.6
2023-01-10T05:17:30.586Z,95502.5
2023-01-10T05:18:33.106Z,95507.4
2023-01-10T05:19:35.633Z,95516
2023-01-10T05:20:38.151Z,95515.2
2023-01-10T05:21:40.678Z,95515.7
2023-01-10T05:22:43.202Z,95519.9
2023-01-10T05:23:45.708Z,95521.5
2023-01-10T05:24:48.248Z,95528
2023-01-10T05:25:50.769Z,95528.6
2023-01-10T05:26:53.052Z,95531.7
2023-01-10T05:27:55.289Z,95528
2023-01-10T05:28:57.795Z,95529.3
2023-01-10T05:30:00.088Z,95527.5
2023-01-10T05:31:02.654Z,95532.8
2023-01-10T05:32:04.918Z,95536.1
2023-01-10T05:33:07.513Z,95536.2
2023-01-10T05:34:09.210Z,95539.8
2023-01-10T05:35:11.703Z,95539.1
2023-01-10T05:36:14.206Z,95543.8
2023-01-10T05:37:16.704Z,95540.4
2023-01-10T05:38:19.208Z,95542.6
2023-01-10T05:39:21.446Z,95544.8
2023-01-10T05:40:23.960Z,95540.4
2023-01-10T05:41:26.206Z,95549.5
2023-01-10T05:42:28.780Z,95550.1
2023-01-10T05:43:31.028Z,95552.1
2023-01-10T05:44:33.566Z,95551.1
2023-01-10T05:45:36.326Z,95553.5
2023-01-10T05:46:38.993Z,95555.5
2023-01-10T05:47:41.260Z,95553.9
2023-01-10T05:48:43.775Z,95559.7
2023-01-10T05:49:46.290Z,95563.1
2023-01-10T05:50:48.792Z,95562.9
2023-01-10T05:51:50.742Z,95565.9
2023-01-10T05:52:53.247Z,95563.7
2023-01-10T05:53:55.467Z,95565.1
2023-01-10T05:54:57.694Z,95568.6
2023-01-10T05:56:00.148Z,95573
2023-01-10T05:57:02.748Z,95573.7
2023-01-10T05:58:05.010Z,95581.5
2023-01-10T06:00:12.519Z,95587.5
2023-01-10T06:01:15.312Z,95592
2023-01-10T06:02:17.873Z,95592.7
2023-01-10T06:03:21.038Z,95589.1
2023-01-10T06:04:23.585Z,95588.6
2023-01-10T06:05:26.106Z,95595.8
2023-01-10T06:06:28.634Z,95599.7
2023-01-10T06:07:31.127Z,95607.8
2023-01-10T06:08:33.337Z,95606.6
2023-01-10T06:09:35.618Z,95610.3
2023-01-10T06:10:38.157Z,95610.3
2023-01-10T06:11:42.444Z,95615.7
2023-01-10T06:12:44.969Z,95613.5
2023-01-10T06:13:47.214Z,95611.8
2023-01-10T06:14:49.767Z,95610.2
2023-01-10T06:15:51.925Z,95619.3
2023-01-10T06:16:54.628Z,95616.9
2023-01-10T06:17:56.863Z,95616.5
2023-01-10T06:18:58.862Z,95622.3
2023-01-10T06:20:01.385Z,95628.3
2023-01-10T06:21:03.900Z,95632
2023-01-10T06:22:06.131Z,95634.1
2023-01-10T06:23:07.841Z,95639.5
2023-01-10T06:24:10.098Z,95643
2023-01-10T06:25:12.131Z,95643.8
2023-01-10T06:26:14.357Z,95644.9
2023-01-10T06:27:17.024Z,95644.9
2023-01-10T06:28:19.237Z,95646
2023-01-10T06:29:21.514Z,95656.5
2023-01-10T06:30:24.035Z,95644.9
2023-01-10T06:31:26.845Z,95648.4
2023-01-10T06:32:29.638Z,95653
2023-01-10T06:33:32.188Z,95647.8
2023-01-10T06:34:34.402Z,95656.4
2023-01-10T06:35:36.649Z,95657.8
2023-01-10T06:36:38.581Z,95662.5
2023-01-10T06:37:41.130Z,95666.6
2023-01-10T06:38:43.363Z,95668.3
2023-01-10T06:39:45.901Z,95670.9
2023-01-10T06:40:48.446Z,95670.9
2023-01-10T06:41:50.467Z,95679.2
2023-01-10T06:42:53.007Z,95675.7
2023-01-10T06:43:55.263Z,95677.8
2023-01-10T06:44:57.564Z,95679.2
2023-01-10T06:46:00.297Z,95686
2023-01-10T06:47:02.608Z,95690.5
2023-01-10T06:48:05.171Z,95692
2023-01-10T06:49:07.704Z,95682.4
2023-01-10T06:50:09.930Z,95683.9
2023-01-10T06:51:12.182Z,95695.1
2023-01-10T06:52:14.708Z,95697.8
2023-01-10T06:53:16.942Z,95700.4
2023-01-10T06:54:19.445Z,95711
2023-01-10T06:55:21.684Z,95706
2023-01-10T06:56:23.927Z,95709.1
2023-01-10T06:57:26.467Z,95719.3
2023-01-10T06:58:28.689Z,95723.8
2023-01-10T06:59:31.207Z,95724.5
2023-01-10T07:00:33.768Z,95719.6
2023-01-10T07:01:36.971Z,95727.4
2023-01-10T07:02:39.729Z,95732.4
2023-01-10T07:03:42.393Z,95737.8
2023-01-10T07:04:45.063Z,95734
2023-01-10T07:05:47.586Z,95738.3
2023-01-10T07:06:49.819Z,95746.6
2023-01-10T07:07:52.040Z,95744.9
2023-01-10T07:08:54.528Z,95744.2
2023-01-10T07:09:57.064Z,95746.9
2023-01-10T07:10:59.571Z,95748.5
2023-01-10T07:12:02.082Z,95755
2023-01-10T07:13:04.360Z,95762.3
2023-01-10T07:14:06.636Z,95763.7
2023-01-10T07:15:08.596Z,95771.6
2023-01-10T07:16:10.963Z,95772.3
2023-01-10T07:17:13.634Z,95780.3
2023-01-10T07:18:15.872Z,95779.8
2023-01-10T07:19:18.443Z,95785.6
2023-01-10T07:20:21.033Z,95787.7
2023-01-10T07:21:23.536Z,95791.6
2023-01-10T07:22:26.048Z,95790.1
2023-01-10T07:23:28.274Z,95793.5
2023-01-10T07:24:30.777Z,95799.9
2023-01-10T07:25:33.260Z,95796
2023-01-10T07:26:35.833Z,95799.5
2023-01-10T07:27:38.159Z,95799.8
2023-01-10T07:28:40.696Z,95804.7
2023-01-10T07:29:43.216Z,95802
2023-01-10T07:30:45.761Z,95807.5
2023-01-10T07:31:48.295Z,95807.5
2023-01-10T07:32:50.555Z,95815.1
2023-01-10T07:33:53.117Z,95819.1
2023-01-10T07:34:55.763Z,95821.2
2023-01-10T07:35:58.325Z,95822
2023-01-10T07:37:00.854Z,95828.2
2023-01-10T07:38:03.078Z,95829.9
2023-01-10T07:39:05.012Z,95831
2023-01-10T07:40:07.517Z,95834.5
2023-01-10T07:41:10.063Z,95838.8
2023-01-10T07:42:12.588Z,95836.9
2023-01-10T07:43:14.857Z,95844.4
2023-01-10T07:44:17.363Z,95844.3
2023-01-10T07:45:19.904Z,95844.7
2023-01-10T07:46:22.300Z,95847.6
2023-01-10T07:47:24.654Z,95849.4
2023-01-10T07:48:27.200Z,95850.8
2023-01-10T07:49:29.724Z,95857.4
2023-01-10T07:50:32.317Z,95854.4
2023-01-10T07:51:34.860Z,95861.4
2023-01-10T07:52:37.385Z,95859.8
2023-01-10T07:53:39.612Z,95864.1
2023-01-10T07:54:41.875Z,95865
2023-01-10T07:55:44.385Z,95866
2023-01-10T07:56:46.904Z,95872.6
2023-01-10T07:57:49.128Z,95874.9
2023-01-10T07:58:51.370Z,95876
2023-01-10T07:59:53.907Z,95878.3
2023-01-10T08:00:56.675Z,95881.7
2023-01-10T08:01:58.962Z,95875.1
2023-01-10T08:03:02.326Z,95882.1
2023-01-10T08:04:04.824Z,95887.3
2023-01-10T08:05:07.370Z,95880.7
2023-01-10T08:06:09.692Z,95883.7
2023-01-10T08:07:11.984Z,95885.1
2023-01-10T08:08:14.488Z,95883.5
2023-01-10T08:09:16.180Z,95887.1
2023-01-10T08:10:18.431Z,95889.5
2023-01-10T08:11:20.405Z,95897.7
2023-01-10T08:12:22.672Z,95892.3
2023-01-10T08:13:24.705Z,95899.2
2023-01-10T08:14:27.547Z,95902.6
2023-01-10T08:15:30.152Z,95906
2023-01-10T08:16:32.659Z,95907.7
2023-01-10T08:17:34.368Z,95909
2023-01-10T08:18:36.975Z,95915.7
2023-01-10T08:19:39.219Z,95914.3
2023-01-10T08:20:41.717Z,95917.4
2023-01-10T08:21:44.053Z,95918.5
2023-01-10T08:22:46.607Z,95917.5
2023-01-10T08:23:48.840Z,95921.9
2023-01-10T08:24:51.349Z,95924.8
2023-01-10T08:25:53.886Z,95920.8
2023-01-10T08:26:56.398Z,95923.3
2023-01-10T08:27:58.916Z,95932.5
2023-01-10T08:29:01.443Z,95935
2023-01-10T08:30:03.705Z,95940.5
2023-01-10T08:31:05.908Z,95946.7
2023-01-10T08:32:08.558Z,95947.3
2023-01-10T08:33:10.841Z,95949.4
2023-01-10T08:34:13.102Z,95954.8
2023-01-10T08:35:15.630Z,95953.3
2023-01-10T08:36:18.140Z,95953.3
2023-01-10T08:37:20.493Z,95959.5
2023-01-10T08:38:22.490Z,95956.8
2023-01-10T08:39:24.736Z,95962.3
2023-01-10T08:40:26.979Z,95966.3
2023-01-10T08:41:29.251Z,95964.6
2023-01-10T08:42:31.471Z,95965.3
2023-01-10T08:43:34.027Z,95970.8
2023-01-10T08:44:35.986Z,95973.5
2023-01-10T08:45:38.744Z,95966.6
2023-01-10T08:46:41.594Z,95968.5
2023-01-10T08:47:43.988Z,95969.3
2023-01-10T08:48:46.226Z,95974.3
2023-01-10T08:49:48.514Z,95978.7
2023-01-10T08:50:50.761Z,95985.8
2023-01-10T08:51:53.291Z,95984.9
2023-01-10T08:52:56.199Z,95985.9
2023-01-10T08:53:58.742Z,95990
2023-01-10T08:55:01.046Z,95986.9
2023-01-10T08:57:08.551Z,95992.4
2023-01-10T08:58:11.097Z,95992
2023-01-10T08:59:13.642Z,95989.3
2023-01-10T09:00:15.950Z,95995.5
2023-01-10T09:01:18.863Z,95996.4
2023-01-10T09:02:21.857Z,95995.4
2023-01-10T09:03:24.279Z,95998
2023-01-10T09:04:26.519Z,96001.8
2023-01-10T09:05:30.113Z,96002.6
2023-01-10T09:06:32.635Z,96002.7
2023-01-10T09:07:35.229Z,96007.6
2023-01-10T09:08:37.813Z,96004.9
2023-01-10T09:09:40.374Z,96006.2
2023-01-10T09:10:42.895Z,96011.5
2023-01-10T09:11:45.559Z,96012
2023-01-10T09:12:48.100Z,96016.4
2023-01-10T09:13:50.341Z,96009.4
2023-01-10T09:14:52.597Z,96012.8
2023-01-10T09:15:54.820Z,96012.6
2023-01-10T09:16:57.151Z,96011.9
2023-01-10T09:17:59.418Z,96018.2
2023-01-10T09:19:01.665Z,96012.7
2023-01-10T09:20:05.230Z,96020.3
2023-01-10T09:21:07.500Z,96019.6
2023-01-10T09:22:10.087Z,96019.8
2023-01-10T09:23:12.339Z,96019.4
2023-01-10T09:24:14.692Z,96015.5
2023-01-10T09:25:16.717Z,96017.8
2023-01-10T09:26:18.679Z,96015.8
2023-01-10T09:27:21.202Z,96023.2
2023-01-10T09:28:23.152Z,96023.6
2023-01-10T09:29:25.445Z,96024.6
2023-01-10T09:30:27.169Z,96025
2023-01-10T09:31:29.699Z,96026.9
2023-01-10T09:32:32.370Z,96031.8
2023-01-10T09:34:39.604Z,96029.2
2023-01-10T09:35:41.573Z,96031.4
2023-01-10T09:36:43.831Z,96032.6
2023-01-10T09:37:45.798Z,96033
2023-01-10T09:38:48.037Z,96036.6
2023-01-10T09:39:50.624Z,96037.8
2023-01-10T09:40:52.912Z,96037.6
2023-01-10T09:41:54.607Z,96043.1
2023-01-10T09:42:57.177Z,96042.3
2023-01-10T09:45:04.715Z,96048.2
2023-01-10T09:46:07.236Z,96047
2023-01-10T09:48:14.745Z,96050.9
2023-01-10T09:49:17.264Z,96048.2
2023-01-10T09:50:19.443Z,96045.3
2023-01-10T09:51:21.873Z,96047.1
2023-01-10T09:52:24.095Z,96045.6
2023-01-10T09:53:26.361Z,96051.3
2023-01-10T09:54:28.632Z,96054.8
2023-01-10T09:56:35.637Z,96052
2023-01-10T09:57:38.237Z,96051.4
2023-01-10T09:58:40.790Z,96051.6
2023-01-10T09:59:43.349Z,96057.3
2023-01-10T10:00:45.967Z,96060.1
2023-01-10T10:01:48.242Z,96058.5
2023-01-10T10:02:50.610Z,96061.2
2023-01-10T10:03:54.030Z,96062.4
2023-01-10T10:04:56.571Z,96062.3
2023-01-10T10:07:03.789Z,96065.7
2023-01-10T10:08:06.132Z,96061.7
2023-01-10T10:09:08.415Z,96061.7
2023-01-10T10:10:10.376Z,96064.2
2023-01-10T10:11:12.377Z,96067.7
2023-01-10T10:12:14.962Z,96068
2023-01-10T10:14:22.223Z,96068.4
2023-01-10T10:15:24.987Z,96066.6
2023-01-10T10:16:27.180Z,96071.4
2023-01-10T10:17:29.562Z,96070.4
2023-01-10T10:18:32.148Z,96067.7
2023-01-10T10:19:34.436Z,96071.9
2023-01-10T10:20:36.726Z,96064.8
2023-01-10T10:21:39.242Z,96062.9
2023-01-10T10:22:41.490Z,96062.1
2023-01-10T10:23:44.062Z,96065.1
2023-01-10T10:24:46.329Z,96059.3
2023-01-10T10:25:48.610Z,96054.3
2023-01-10T10:26:50.849Z,96053
2023-01-10T10:27:53.121Z,96054.1
2023-01-10T10:28:56.964Z,96053.9
2023-01-10T10:29:59.508Z,96062.4
2023-01-10T10:31:01.775Z,96057.7
2023-01-10T10:32:04.033Z,96062
2023-01-10T10:33:06.551Z,96055
2023-01-10T10:34:09.113Z,96057.7
2023-01-10T10:35:10.804Z,96049.3
2023-01-10T10:36:13.328Z,96053.8
2023-01-10T10:37:15.619Z,96041.6
2023-01-10T10:38:18.144Z,96046.7
2023-01-10T10:39:20.145Z,96045.2
2023-01-10T10:40:22.716Z,96039.9
2023-01-10T10:41:25.256Z,96035.6
2023-01-10T10:42:27.553Z,96038.7
2023-01-10T10:43:29.546Z,96035.5
2023-01-10T10:44:32.114Z,96033.5
2023-01-10T10:45:34.904Z,96039
2023-01-10T10:46:37.485Z,96037.7
2023-01-10T10:47:39.752Z,96034.4
2023-01-10T10:48:42.254Z,96037.6
2023-01-10T10:49:44.775Z,96043.4
2023-01-10T10:50:46.980Z,96035.6
2023-01-10T10:51:49.229Z,96034.1
2023-01-10T10:52:51.765Z,96041
2023-01-10T10:53:54.339Z,96038.8
2023-01-10T10:54:56.796Z,96041.5
2023-01-10T10:55:59.698Z,96043.4
2023-01-10T10:57:02.276Z,96047.7
2023-01-10T10:58:04.875Z,96044.9
2023-01-10T10:59:07.179Z,96052.3
2023-01-10T11:00:09.747Z,96058.2
2023-01-10T11:01:11.993Z,96058.8
2023-01-10T11:02:14.883Z,96061.6
2023-01-10T11:03:17.242Z,96052.5
2023-01-10T11:04:19.796Z,96057.2
2023-01-10T11:05:22.686Z,96053.6
2023-01-10T11:06:25.240Z,96061.2
2023-01-10T11:07:27.764Z,96060.4
2023-01-10T11:08:30.333Z,96070.8
2023-01-10T11:09:32.568Z,96070.4
2023-01-10T11:10:35.084Z,96071.6
2023-01-10T11:11:37.623Z,96069
2023-01-10T11:12:40.142Z,96066.8
2023-01-10T11:13:42.728Z,96072.1
2023-01-10T11:14:45.312Z,96067.7
2023-01-10T11:15:47.878Z,96075.7
2023-01-10T11:16:50.369Z,96076.3
2023-01-10T11:17:52.351Z,96076.5
2023-01-10T11:18:54.588Z,96074.5
2023-01-10T11:19:56.289Z,96077.2
2023-01-10T11:20:58.558Z,96072.8
2023-01-10T11:22:00.852Z,96069
2023-01-10T11:23:03.092Z,96068.9
2023-01-10T11:24:05.649Z,96068.7
2023-01-10T11:25:08.175Z,96065
2023-01-10T11:26:10.731Z,96059.3
2023-01-10T11:27:12.712Z,96060.8
2023-01-10T11:28:14.969Z,96058.4
2023-01-10T11:29:17.502Z,96063.7
2023-01-10T11:30:20.092Z,96065.3
2023-01-10T11:31:22.814Z,96060.1
2023-01-10T11:32:25.455Z,96067.6
2023-01-10T11:33:27.673Z,96064.6
2023-01-10T11:34:30.229Z,96064
2023-01-10T11:35:32.777Z,96068.4
2023-01-10T11:36:35.068Z,96065.8
2023-01-10T11:37:37.616Z,96068.3
2023-01-10T11:38:40.164Z,96066.5
2023-01-10T11:39:42.674Z,96068
2023-01-10T11:40:44.968Z,96065.2
2023-01-10T11:41:47.582Z,96075.2
2023-01-10T11:42:50.107Z,96070.5
2023-01-10T11:43:52.605Z,96068.5
2023-01-10T11:44:55.160Z,96066.3
2023-01-10T11:45:57.726Z,96065.6
2023-01-10T11:47:00.387Z,96061
2023-01-10T11:48:02.136Z,96063.2
2023-01-10T11:50:09.372Z,96064.9
2023-01-10T11:51:11.945Z,96066.3
2023-01-10T11:52:14.469Z,96069.1
2023-01-10T11:53:16.726Z,96071.3
2023-01-10T11:54:19.259Z,96073.4
2023-01-10T11:55:21.605Z,96074.9
2023-01-10T11:56:23.588Z,96080
2023-01-10T11:57:26.177Z,96069
2023-01-10T11:58:28.386Z,96084
2023-01-10T11:59:30.886Z,96069.3
2023-01-10T12:00:33.441Z,96070.7
2023-01-10T12:01:36.417Z,96068.3
2023-01-10T12:02:39.334Z,96068.7
2023-01-10T12:03:41.970Z,96064.9
2023-01-10T12:04:44.528Z,96059.8
2023-01-10T12:05:46.766Z,96062.4
2023-01-10T12:06:49.270Z,96071.4
2023-01-10T12:07:51.783Z,96068.6
2023-01-10T12:08:54.309Z,96068.1
2023-01-10T12:09:56.568Z,96064.7
2023-01-10T12:10:59.118Z,96066.7
2023-01-10T12:12:01.699Z,96060.6
2023-01-10T12:13:03.695Z,96057.8
2023-01-10T12:14:05.940Z,96059.5
2023-01-10T12:15:08.449Z,96064.4
2023-01-10T12:16:10.698Z,96060.4
2023-01-10T12:17:13.808Z,96061
2023-01-10T12:18:16.362Z,96063
2023-01-10T12:19:18.630Z,96061
2023-01-10T12:20:20.605Z,96063.3
2023-01-10T12:21:22.864Z,96064.7
2023-01-10T12:22:25.101Z,96055.3
2023-01-10T12:23:27.382Z,96060.4
2023-01-10T12:24:29.666Z,96059.8
2023-01-10T12:25:31.373Z,96054.1
2023-01-10T12:26:33.867Z,96052.5
2023-01-10T12:27:36.165Z,96047.8
2023-01-10T12:28:38.727Z,96054.5
2023-01-10T12:29:40.955Z,96055.7
2023-01-10T12:30:43.759Z,96061.4
2023-01-10T12:31:46.359Z,96062.4
2023-01-10T12:32:48.949Z,96060.6
2023-01-10T12:33:51.509Z,96062.1
2023-01-10T12:34:54.183Z,96065.4
2023-01-10T12:35:57.599Z,96067.2
2023-01-10T12:37:00.130Z,96070.4
2023-01-10T12:38:02.396Z,96074
2023-01-10T12:39:04.418Z,96075.1
2023-01-10T12:40:06.762Z,96076.5
2023-01-10T12:41:09.292Z,96076
2023-01-10T12:42:11.852Z,96080.7
2023-01-10T12:43:14.122Z,96082.4
2023-01-10T12:44:16.700Z,96078.5
2023-01-10T12:45:19.284Z,96078.1
2023-01-10T12:47:27.114Z,96087
2023-01-10T12:48:29.535Z,96087.5
2023-01-10T12:49:31.873Z,96081
2023-01-10T12:50:33.957Z,96078
2023-01-10T12:51:36.475Z,96075.6
2023-01-10T12:52:38.436Z,96081
2023-01-10T12:53:41.118Z,96077.5
2023-01-10T12:54:43.960Z,96081.3
2023-01-10T12:55:47.169Z,96076.5